Time;durP1;ratioP1;P1;durP2;ratioP2;P2;SDS_P1;SDS_P2;PMS_P1;PMS_P2;Temp;Humidity;BMP_temperature;BMP_pressure;BME280_temperature;BME280_humidity;BME280_pressure;Samples;Min_cycle;Max_cycle;Signal;HPM_P1;HPM_P2
2022/12/27 00:01:07;;;;;;;;;;;18.80;61.80;;;;;;4458000;32;20296;-73
2022/12/27 00:03:36;;;;;;;;;;;18.80;61.80;;;;;;4457494;32;19986;-74
2022/12/27 00:06:05;;;;;;;;;;;18.70;61.90;;;;;;4458294;32;20046;-73
2022/12/27 00:08:31;;;;;;;;;;;18.70;61.80;;;;;;4458618;32;20025;-73
2022/12/27 00:11:02;;;;;;;;;;;18.70;61.90;;;;;;4459498;32;20539;-73
2022/12/27 00:13:31;;;;;;;;;;;18.70;61.90;;;;;;4457748;32;20083;-73
2022/12/27 00:16:01;;;;;;;;;;;18.70;61.90;;;;;;4457873;32;19992;-74
2022/12/27 00:18:27;;;;;;;;;;;18.70;61.80;;;;;;4457155;32;20542;-73
2022/12/27 00:20:57;;;;;;;;;;;18.60;61.80;;;;;;4458760;32;19979;-73
2022/12/27 00:23:23;;;;;;;;;;;18.60;61.90;;;;;;4458517;32;19978;-73
2022/12/27 00:25:49;;;;;;;;;;;18.60;61.80;;;;;;4459692;32;20408;-73
2022/12/27 00:28:15;;;;;;;;;;;18.60;61.90;;;;;;4459704;32;20034;-73
2022/12/27 00:30:41;;;;;;;;;;;18.60;61.90;;;;;;4457483;32;20535;-73
2022/12/27 00:33:07;;;;;;;;;;;18.60;62.00;;;;;;4455682;32;20014;-73
2022/12/27 00:35:33;;;;;;;;;;;18.60;62.00;;;;;;4456716;32;20390;-73
2022/12/27 00:37:58;;;;;;;;;;;18.50;61.90;;;;;;4458405;32;19993;-73
2022/12/27 00:40:24;;;;;;;;;;;18.50;62.00;;;;;;4457426;32;19974;-73
2022/12/27 00:42:50;;;;;;;;;;;18.50;61.90;;;;;;4455916;32;20124;-73
2022/12/27 00:45:17;;;;;;;;;;;18.50;62.00;;;;;;4458147;32;19990;-73
2022/12/27 00:47:43;;;;;;;;;;;18.50;62.00;;;;;;4457220;32;20080;-73
2022/12/27 00:50:10;;;;;;;;;;;18.50;62.00;;;;;;4458745;32;20506;-73
2022/12/27 00:52:35;;;;;;;;;;;18.50;62.10;;;;;;4459131;32;19982;-73
2022/12/27 00:55:01;;;;;;;;;;;18.40;62.00;;;;;;4459560;32;20057;-73
2022/12/27 00:57:27;;;;;;;;;;;18.40;62.00;;;;;;4457862;32;20052;-73
2022/12/27 00:59:58;;;;;;;;;;;18.40;62.00;;;;;;4456298;32;19978;-73
2022/12/27 01:02:24;;;;;;;;;;;18.40;62.00;;;;;;4457921;32;19966;-73
2022/12/27 01:04:52;;;;;;;;;;;18.40;62.00;;;;;;4456924;32;19975;-73
2022/12/27 01:07:18;;;;;;;;;;;18.40;62.00;;;;;;4458603;32;19990;-73
2022/12/27 01:09:44;;;;;;;;;;;18.40;62.00;;;;;;4458461;32;20079;-73
2022/12/27 01:12:13;;;;;;;;;;;18.40;62.00;;;;;;4445186;32;20037;-73
2022/12/27 01:14:38;;;;;;;;;;;18.40;62.00;;;;;;4458221;32;19981;-72
2022/12/27 01:17:04;;;;;;;;;;;18.30;62.00;;;;;;4460431;32;19985;-72
2022/12/27 01:19:30;;;;;;;;;;;18.40;62.10;;;;;;4462747;32;20132;-72
2022/12/27 01:21:56;;;;;;;;;;;18.40;61.90;;;;;;4459332;32;19971;-72
2022/12/27 01:24:22;;;;;;;;;;;18.40;61.80;;;;;;4461174;32;20025;-72
2022/12/27 01:26:48;;;;;;;;;;;18.40;61.70;;;;;;4446455;32;20068;-72
2022/12/27 01:29:14;;;;;;;;;;;18.40;61.70;;;;;;4461582;32;19978;-72
2022/12/27 01:31:39;;;;;;;;;;;18.40;61.60;;;;;;4462010;32;20391;-71
2022/12/27 01:34:05;;;;;;;;;;;18.40;61.70;;;;;;4461579;32;20319;-73
2022/12/27 01:36:31;;;;;;;;;;;18.40;61.60;;;;;;4461104;32;20312;-73
2022/12/27 01:38:57;;;;;;;;;;;18.40;61.40;;;;;;4460950;32;19974;-73
2022/12/27 01:44:34;;;;;;;;;;;18.30;61.40;;;;;;4459170;32;19978;-73
2022/12/27 01:47:01;;;;;;;;;;;18.30;61.50;;;;;;4460248;32;20060;-73
2022/12/27 01:49:31;;;;;;;;;;;18.30;61.60;;;;;;4459753;32;19985;-73
2022/12/27 01:51:57;;;;;;;;;;;18.20;61.60;;;;;;4440960;32;20328;-72
2022/12/27 01:54:23;;;;;;;;;;;18.20;61.60;;;;;;4457671;32;20407;-73
2022/12/27 01:56:49;;;;;;;;;;;18.20;61.50;;;;;;4453489;32;20474;-73
2022/12/27 01:59:16;;;;;;;;;;;18.20;61.50;;;;;;4451925;32;20454;-73
2022/12/27 02:01:44;;;;;;;;;;;18.20;61.50;;;;;;4456684;32;19988;-73
2022/12/27 02:04:18;;;;;;;;;;;18.20;61.50;;;;;;4461295;32;20005;-73
2022/12/27 02:06:44;;;;;;;;;;;18.20;61.40;;;;;;4459851;32;19983;-73
2022/12/27 02:09:27;;;;;;;;;;;18.20;61.50;;;;;;4460555;32;20096;-72
2022/12/27 02:11:57;;;;;;;;;;;18.10;61.40;;;;;;4455479;32;19975;-73
2022/12/27 02:14:43;;;;;;;;;;;18.10;61.40;;;;;;4458990;32;20379;-73
2022/12/27 02:17:11;;;;;;;;;;;18.10;61.40;;;;;;4455179;32;19979;-73
2022/12/27 02:19:39;;;;;;;;;;;18.10;61.40;;;;;;4461142;32;19975;-73
2022/12/27 02:22:10;;;;;;;;;;;18.00;61.30;;;;;;4454570;32;20450;-73
2022/12/27 02:24:45;;;;;;;;;;;18.00;61.20;;;;;;4459454;32;19974;-73
2022/12/27 02:27:10;;;;;;;;;;;18.00;61.20;;;;;;4459533;32;20010;-73
2022/12/27 02:29:50;;;;;;;;;;;18.00;61.20;;;;;;4458691;32;19997;-73
2022/12/27 02:32:28;;;;;;;;;;;18.00;61.20;;;;;;4458886;32;19995;-73
2022/12/27 02:34:54;;;;;;;;;;;18.00;61.30;;;;;;4457574;32;20064;-73
2022/12/27 02:37:21;;;;;;;;;;;18.00;61.30;;;;;;4460625;32;19974;-73
2022/12/27 02:39:48;;;;;;;;;;;18.00;61.30;;;;;;4460018;32;19990;-73
2022/12/27 02:53:40;;;;;;;;;;;17.90;61.20;;;;;;4460056;32;19996;-73
2022/12/27 02:58:52;;;;;;;;;;;17.90;61.30;;;;;;4458693;32;20111;-72
2022/12/27 03:04:38;;;;;;;;;;;17.90;61.20;;;;;;4410769;32;20408;-72
2022/12/27 03:07:13;;;;;;;;;;;17.90;61.20;;;;;;4452905;32;19970;-72
2022/12/27 03:18:17;;;;;;;;;;;17.80;61.20;;;;;;4458627;32;20033;-73
2022/12/27 03:26:13;;;;;;;;;;;17.80;61.00;;;;;;4459572;32;20115;-73
2022/12/27 03:34:32;;;;;;;;;;;17.70;61.00;;;;;;4458073;32;20049;-73
2022/12/27 03:40:07;;;;;;;;;;;17.70;61.00;;;;;;4460027;32;20133;-73
2022/12/27 03:46:32;;;;;;;;;;;17.70;60.90;;;;;;4458832;32;20034;-73
2022/12/27 03:48:14;;;;;;;;;;;17.70;61.00;;;;;;4458438;32;20022;-73
2022/12/27 03:50:47;;;;;;;;;;;17.70;60.90;;;;;;4458934;32;20416;-73
2022/12/27 03:53:20;;;;;;;;;;;17.70;61.00;;;;;;4443689;32;20046;-73
2022/12/27 03:55:46;;;;;;;;;;;17.60;60.90;;;;;;4459829;32;20006;-73
2022/12/27 03:58:12;;;;;;;;;;;17.70;61.00;;;;;;4459575;32;20048;-73
2022/12/27 04:00:38;;;;;;;;;;;17.70;60.90;;;;;;4457878;32;20073;-73
2022/12/27 04:03:03;;;;;;;;;;;17.70;61.80;;;;;;4456376;32;19977;-73
2022/12/27 04:05:29;;;;;;;;;;;17.60;60.90;;;;;;4458312;32;19974;-73
2022/12/27 04:35:19;;;;;;;;;;;17.50;61.10;;;;;;4460716;32;20085;-73
2022/12/27 04:37:44;;;;;;;;;;;17.50;61.10;;;;;;4460603;32;19984;-73
2022/12/27 04:56:38;;;;;;;;;;;17.40;60.90;;;;;;4453647;32;20162;-73
2022/12/27 05:02:03;;;;;;;;;;;17.40;60.90;;;;;;4454311;32;20387;-73
2022/12/27 05:04:34;;;;;;;;;;;17.40;61.00;;;;;;4462015;32;20563;-73
2022/12/27 05:13:58;;;;;;;;;;;17.40;61.00;;;;;;4454886;32;19994;-73
2022/12/27 05:15:27;;;;;;;;;;;17.40;60.90;;;;;;4454379;32;20023;-73
2022/12/27 05:17:55;;;;;;;;;;;17.40;60.90;;;;;;4463369;32;19978;-73
2022/12/27 05:20:20;;;;;;;;;;;17.40;61.00;;;;;;4463474;32;19986;-73
2022/12/27 05:25:33;;;;;;;;;;;17.30;60.90;;;;;;4453404;32;19974;-73
2022/12/27 05:28:00;;;;;;;;;;;17.30;60.90;;;;;;4463086;32;20092;-73
2022/12/27 05:30:26;;;;;;;;;;;17.30;60.90;;;;;;4462985;32;20033;-73
2022/12/27 05:32:55;;;;;;;;;;;17.30;60.90;;;;;;4463289;32;20116;-73
2022/12/27 05:35:21;;;;;;;;;;;17.30;60.90;;;;;;4448981;32;19989;-73
2022/12/27 05:37:46;;;;;;;;;;;17.30;61.80;;;;;;4463003;32;19966;-73
2022/12/27 05:40:13;;;;;;;;;;;17.30;61.00;;;;;;4463106;32;20021;-73
2022/12/27 05:42:38;;;;;;;;;;;17.30;60.90;;;;;;4462915;32;19986;-73
2022/12/27 05:45:05;;;;;;;;;;;17.30;60.90;;;;;;4463169;32;20442;-73
2022/12/27 05:47:35;;;;;;;;;;;17.20;60.80;;;;;;4462834;32;20115;-73
2022/12/27 05:50:02;;;;;;;;;;;17.20;60.80;;;;;;4463086;32;20067;-73
2022/12/27 05:52:28;;;;;;;;;;;17.20;60.80;;;;;;4462846;32;19982;-73
2022/12/27 05:55:07;;;;;;;;;;;17.20;60.90;;;;;;4463047;32;19966;-73
2022/12/27 05:57:34;;;;;;;;;;;17.20;60.90;;;;;;4462530;32;19978;-73
2022/12/27 05:59:59;;;;;;;;;;;17.20;60.80;;;;;;4463095;32;20017;-73
2022/12/27 06:02:25;;;;;;;;;;;17.20;60.90;;;;;;4455155;32;20308;-73
2022/12/27 06:04:51;;;;;;;;;;;17.20;60.90;;;;;;4447371;32;20024;-73
2022/12/27 06:07:16;;;;;;;;;;;17.20;60.90;;;;;;4455701;32;19971;-73
2022/12/27 06:09:42;;;;;;;;;;;17.20;60.90;;;;;;4460393;32;20013;-73
2022/12/27 06:12:08;;;;;;;;;;;17.20;60.90;;;;;;4451202;32;19981;-73
2022/12/27 06:14:40;;;;;;;;;;;17.20;61.00;;;;;;4451151;32;20060;-73
2022/12/27 06:17:05;;;;;;;;;;;17.20;61.00;;;;;;4437158;32;19989;-73
2022/12/27 06:19:32;;;;;;;;;;;17.20;60.90;;;;;;4454682;32;20335;-73
2022/12/27 06:21:57;;;;;;;;;;;17.20;60.80;;;;;;4451237;32;19978;-73
2022/12/27 06:24:26;;;;;;;;;;;17.20;60.80;;;;;;4453379;32;19990;-73
2022/12/27 06:26:52;;;;;;;;;;;17.20;60.80;;;;;;4452379;32;19981;-73
2022/12/27 06:29:18;;;;;;;;;;;17.30;60.80;;;;;;4451587;32;19966;-73
2022/12/27 06:31:45;;;;;;;;;;;17.30;60.80;;;;;;4462413;32;19982;-73
2022/12/27 06:34:12;;;;;;;;;;;17.30;60.90;;;;;;4461742;32;19989;-73
2022/12/27 06:36:38;;;;;;;;;;;17.30;60.80;;;;;;4462311;32;19974;-73
2022/12/27 06:39:04;;;;;;;;;;;17.30;60.70;;;;;;4462066;32;20443;-73
2022/12/27 06:41:29;;;;;;;;;;;17.30;60.50;;;;;;4462294;32;19974;-73
2022/12/27 06:43:56;;;;;;;;;;;17.40;60.50;;;;;;4462035;32;19977;-73
2022/12/27 06:46:23;;;;;;;;;;;17.40;60.50;;;;;;4448346;32;19982;-73
2022/12/27 06:48:48;;;;;;;;;;;17.40;60.50;;;;;;4461995;32;19974;-73
2022/12/27 06:51:16;;;;;;;;;;;17.40;60.30;;;;;;4447917;32;19989;-73
2022/12/27 06:53:42;;;;;;;;;;;17.40;60.30;;;;;;4461910;32;20538;-73
2022/12/27 06:56:09;;;;;;;;;;;17.40;60.30;;;;;;4461691;32;20168;-72
2022/12/27 06:58:34;;;;;;;;;;;17.50;60.30;;;;;;4462140;32;20040;-73
2022/12/27 07:01:07;;;;;;;;;;;17.50;60.20;;;;;;4461746;32;20100;-73
2022/12/27 07:03:33;;;;;;;;;;;17.50;60.20;;;;;;4461747;32;20034;-72
2022/12/27 07:06:02;;;;;;;;;;;17.50;60.20;;;;;;4461439;32;19977;-73
2022/12/27 07:08:29;;;;;;;;;;;17.50;60.20;;;;;;4451291;32;20376;-73
2022/12/27 07:11:06;;;;;;;;;;;17.50;60.20;;;;;;4461726;32;19992;-73
2022/12/27 07:13:33;;;;;;;;;;;17.50;60.10;;;;;;4461800;32;20331;-73
2022/12/27 07:15:58;;;;;;;;;;;17.50;59.90;;;;;;4461501;32;20025;-73
2022/12/27 07:18:25;;;;;;;;;;;17.50;60.00;;;;;;4461399;32;19974;-73
2022/12/27 07:20:50;;;;;;;;;;;17.50;60.00;;;;;;4461484;32;19966;-72
2022/12/27 07:23:16;;;;;;;;;;;17.50;60.00;;;;;;4461328;32;20525;-69
2022/12/27 07:25:42;;;;;;;;;;;17.50;60.00;;;;;;4461379;32;20203;-71
2022/12/27 07:28:08;;;;;;;;;;;17.50;59.90;;;;;;4461473;32;19970;-72
2022/12/27 07:30:33;;;;;;;;;;;17.50;60.00;;;;;;4461344;32;20467;-73
2022/12/27 07:32:59;;;;;;;;;;;17.50;60.30;;;;;;4461534;32;20005;-72
2022/12/27 07:35:28;;;;;;;;;;;17.50;60.50;;;;;;4460909;32;19993;-73
2022/12/27 07:37:54;;;;;;;;;;;17.50;60.50;;;;;;4461599;32;20033;-72
2022/12/27 07:40:20;;;;;;;;;;;17.50;60.40;;;;;;4461313;32;19982;-72
2022/12/27 07:42:47;;;;;;;;;;;17.50;60.50;;;;;;4461061;32;20044;-72
2022/12/27 07:45:13;;;;;;;;;;;17.50;60.40;;;;;;4458219;32;20018;-72
2022/12/27 07:47:38;;;;;;;;;;;17.50;60.40;;;;;;4457238;32;19982;-73
2022/12/27 07:50:04;;;;;;;;;;;17.50;60.30;;;;;;4459274;32;19978;-72
2022/12/27 07:52:31;;;;;;;;;;;17.50;60.40;;;;;;4458889;32;19974;-72
2022/12/27 07:54:56;;;;;;;;;;;17.50;60.40;;;;;;4457974;32;20045;-72
2022/12/27 07:57:22;;;;;;;;;;;17.50;60.30;;;;;;4457318;32;20092;-72
2022/12/27 07:59:48;;;;;;;;;;;17.70;60.60;;;;;;4453633;32;19959;-72
2022/12/27 08:02:15;;;;;;;;;;;17.70;60.40;;;;;;4457159;32;19974;-72
2022/12/27 08:04:41;;;;;;;;;;;17.90;60.10;;;;;;4454341;32;19989;-72
2022/12/27 08:07:13;;;;;;;;;;;18.00;59.70;;;;;;4459342;32;20051;-73
2022/12/27 08:09:43;;;;;;;;;;;18.10;59.30;;;;;;4456806;32;20120;-72
2022/12/27 08:12:09;;;;;;;;;;;18.30;58.90;;;;;;4457035;32;20191;-72
2022/12/27 08:14:34;;;;;;;;;;;18.40;58.50;;;;;;4446144;32;20388;-72
2022/12/27 08:17:13;;;;;;;;;;;18.60;58.10;;;;;;4453784;32;19966;-73
2022/12/27 08:19:39;;;;;;;;;;;18.70;57.80;;;;;;4456905;32;20060;-72
2022/12/27 08:22:05;;;;;;;;;;;18.80;57.30;;;;;;4459179;32;19978;-72
2022/12/27 08:24:31;;;;;;;;;;;19.00;57.10;;;;;;4459227;32;19978;-72
2022/12/27 08:26:57;;;;;;;;;;;19.10;56.70;;;;;;4458161;32;19962;-72
2022/12/27 08:29:28;;;;;;;;;;;19.20;56.40;;;;;;4445495;32;19986;-72
2022/12/27 08:31:54;;;;;;;;;;;19.30;56.30;;;;;;4458893;32;20303;-72
2022/12/27 08:34:19;;;;;;;;;;;19.40;56.10;;;;;;4457915;32;20427;-72
2022/12/27 08:36:45;;;;;;;;;;;19.50;56.00;;;;;;4459442;32;19988;-72
2022/12/27 08:39:11;;;;;;;;;;;19.50;56.70;;;;;;4445427;32;19970;-71
2022/12/27 08:41:37;;;;;;;;;;;19.50;55.80;;;;;;4460156;32;20017;-72
2022/12/27 08:44:03;;;;;;;;;;;19.50;55.80;;;;;;4457310;32;20030;-72
2022/12/27 08:46:29;;;;;;;;;;;19.50;55.80;;;;;;4458552;32;20041;-72
2022/12/27 08:48:55;;;;;;;;;;;19.50;55.80;;;;;;4458686;32;19982;-72
2022/12/27 08:51:21;;;;;;;;;;;19.50;55.70;;;;;;4439863;32;19978;-72
2022/12/27 08:53:48;;;;;;;;;;;19.50;55.70;;;;;;4448944;32;19983;-72
2022/12/27 08:56:14;;;;;;;;;;;19.50;55.80;;;;;;4452461;32;20513;-72
2022/12/27 08:58:39;;;;;;;;;;;19.50;55.70;;;;;;4453043;32;20168;-72
2022/12/27 09:01:06;;;;;;;;;;;19.50;55.70;;;;;;4450759;32;19962;-72
2022/12/27 09:03:31;;;;;;;;;;;19.50;55.70;;;;;;4447944;32;20060;-72
2022/12/27 09:06:17;;;;;;;;;;;19.50;55.60;;;;;;4458093;32;20004;-72
2022/12/27 09:08:43;;;;;;;;;;;19.60;55.60;;;;;;4459470;32;20855;-72
2022/12/27 09:11:11;;;;;;;;;;;19.60;55.50;;;;;;4452994;32;19997;-72
2022/12/27 09:13:37;;;;;;;;;;;19.60;55.50;;;;;;4452225;32;20451;-73
2022/12/27 09:16:10;;;;;;;;;;;19.60;55.40;;;;;;4458016;32;19978;-73
2022/12/27 09:18:39;;;;;;;;;;;19.60;55.40;;;;;;4447495;32;20060;-73
2022/12/27 09:21:06;;;;;;;;;;;19.60;55.20;;;;;;4448849;32;19982;-71
2022/12/27 09:23:32;;;;;;;;;;;19.60;55.20;;;;;;4457594;32;19992;-72
2022/12/27 09:25:57;;;;;;;;;;;19.60;55.20;;;;;;4445419;32;20312;-72
2022/12/27 09:28:23;;;;;;;;;;;19.60;55.20;;;;;;4459778;32;20101;-72
2022/12/27 09:30:49;;;;;;;;;;;19.60;55.20;;;;;;4442899;32;20100;-72
2022/12/27 09:33:15;;;;;;;;;;;19.60;55.20;;;;;;4459381;32;19977;-72
2022/12/27 09:35:41;;;;;;;;;;;19.70;55.20;;;;;;4448740;32;19976;-72
2022/12/27 09:38:06;;;;;;;;;;;19.70;55.30;;;;;;4453702;32;19975;-72
2022/12/27 09:40:35;;;;;;;;;;;19.60;55.20;;;;;;4459567;32;20036;-71
2022/12/27 09:43:06;;;;;;;;;;;19.60;55.30;;;;;;4462010;32;19989;-72
2022/12/27 09:45:39;;;;;;;;;;;19.60;55.50;;;;;;4448152;32;20293;-71
2022/12/27 09:48:12;;;;;;;;;;;19.60;55.60;;;;;;4452516;32;20022;-71
2022/12/27 09:50:45;;;;;;;;;;;19.60;55.70;;;;;;4456849;32;19985;-72
2022/12/27 09:53:16;;;;;;;;;;;19.50;55.70;;;;;;4461006;32;19993;-71
2022/12/27 09:55:47;;;;;;;;;;;19.50;55.80;;;;;;4460862;32;19988;-72
2022/12/27 09:58:25;;;;;;;;;;;19.50;55.90;;;;;;4460471;32;20504;-72
2022/12/27 10:00:51;;;;;;;;;;;19.50;55.90;;;;;;4462245;32;19986;-71
2022/12/27 10:03:19;;;;;;;;;;;19.60;55.90;;;;;;4460082;32;20027;-72
2022/12/27 10:05:46;;;;;;;;;;;19.60;55.90;;;;;;4460246;32;20014;-72
2022/12/27 10:08:32;;;;;;;;;;;19.60;55.80;;;;;;4459191;32;20030;-71
2022/12/27 10:11:01;;;;;;;;;;;19.60;55.80;;;;;;4447625;32;19970;-72
2022/12/27 10:13:26;;;;;;;;;;;19.60;55.90;;;;;;4459828;32;19973;-72
2022/12/27 10:16:04;;;;;;;;;;;19.60;55.80;;;;;;4461226;32;19977;-73
2022/12/27 10:18:42;;;;;;;;;;;19.60;55.80;;;;;;4461379;32;19982;-72
2022/12/27 10:21:22;;;;;;;;;;;19.50;55.80;;;;;;4459480;32;19978;-72
2022/12/27 10:23:54;;;;;;;;;;;19.60;55.80;;;;;;4450831;32;19994;-72
2022/12/27 10:26:21;;;;;;;;;;;19.60;55.80;;;;;;4454089;32;20060;-71
2022/12/27 10:28:56;;;;;;;;;;;19.60;55.70;;;;;;4458999;32;19982;-72
2022/12/27 10:31:22;;;;;;;;;;;19.60;55.80;;;;;;4462481;32;20080;-71
2022/12/27 10:33:49;;;;;;;;;;;19.60;55.80;;;;;;4462173;32;19986;-73
2022/12/27 10:36:18;;;;;;;;;;;19.60;55.70;;;;;;4462266;32;20084;-72
2022/12/27 10:38:44;;;;;;;;;;;19.60;55.70;;;;;;4462206;32;20131;-72
2022/12/27 10:41:15;;;;;;;;;;;19.60;55.80;;;;;;4447848;32;20040;-72
2022/12/27 10:43:43;;;;;;;;;;;19.60;55.80;;;;;;4448147;32;19974;-72
2022/12/27 10:46:13;;;;;;;;;;;19.60;55.80;;;;;;4460833;32;20315;-72
2022/12/27 10:48:39;;;;;;;;;;;19.60;55.80;;;;;;4461299;32;20042;-72
2022/12/27 10:51:09;;;;;;;;;;;19.60;55.80;;;;;;4458317;32;19977;-71
2022/12/27 10:53:39;;;;;;;;;;;19.70;55.70;;;;;;4457814;32;20429;-72
2022/12/27 10:56:06;;;;;;;;;;;19.70;55.90;;;;;;4456087;32;19986;-71
2022/12/27 10:58:41;;;;;;;;;;;19.60;55.80;;;;;;4456514;32;20617;-83
2022/12/27 11:01:20;;;;;;;;;;;19.70;55.80;;;;;;4456564;32;19974;-68
2022/12/27 11:03:46;;;;;;;;;;;19.70;55.60;;;;;;4457911;32;19998;-77
2022/12/27 11:06:23;;;;;;;;;;;19.60;55.60;;;;;;4456659;32;19970;-77
2022/12/27 11:08:49;;;;;;;;;;;19.60;55.80;;;;;;4458252;32;19981;-76
2022/12/27 11:11:24;;;;;;;;;;;19.50;55.70;;;;;;4457194;32;19971;-76
2022/12/27 11:13:51;;;;;;;;;;;19.50;55.90;;;;;;4457767;32;20065;-76
2022/12/27 11:16:36;;;;;;;;;;;19.40;56.00;;;;;;4458045;32;20297;-76
2022/12/27 11:19:03;;;;;;;;;;;19.40;55.90;;;;;;4458149;32;20388;-76
2022/12/27 11:21:29;;;;;;;;;;;19.40;56.10;;;;;;4457551;32;19958;-76
2022/12/27 11:23:56;;;;;;;;;;;19.30;56.00;;;;;;4456887;32;19974;-76
2022/12/27 11:26:30;;;;;;;;;;;19.30;56.30;;;;;;4458479;32;20052;-76
2022/12/27 11:28:58;;;;;;;;;;;19.20;56.40;;;;;;4461405;32;19982;-76
2022/12/27 11:31:35;;;;;;;;;;;19.20;56.40;;;;;;4461416;32;20176;-75
2022/12/27 11:34:05;;;;;;;;;;;19.20;56.50;;;;;;4461340;32;20176;-76
2022/12/27 11:36:53;;;;;;;;;;;19.20;56.60;;;;;;4449722;32;19982;-76
2022/12/27 11:39:42;;;;;;;;;;;19.10;56.70;;;;;;4449595;32;20286;-76
2022/12/27 11:42:31;;;;;;;;;;;19.10;56.80;;;;;;4461013;32;19978;-76
2022/12/27 11:45:29;;;;;;;;;;;19.10;56.90;;;;;;4461093;32;20312;-75
2022/12/27 11:47:57;;;;;;;;;;;19.00;56.90;;;;;;4434541;32;19985;-76
2022/12/27 11:50:26;;;;;;;;;;;19.00;57.00;;;;;;4461510;32;20292;-76
2022/12/27 11:53:07;;;;;;;;;;;19.00;57.00;;;;;;4460977;32;20079;-76
2022/12/27 11:56:11;;;;;;;;;;;19.00;57.10;;;;;;4461016;32;20060;-76
2022/12/27 11:58:53;;;;;;;;;;;18.90;57.10;;;;;;4397661;32;19976;-76
2022/12/27 12:01:26;;;;;;;;;;;18.90;57.20;;;;;;4396877;32;19987;-75
2022/12/27 12:04:10;;;;;;;;;;;18.90;57.20;;;;;;4435420;32;20002;-77
2022/12/27 12:07:03;;;;;;;;;;;18.90;57.30;;;;;;4446856;32;20067;-76
2022/12/27 12:09:42;;;;;;;;;;;18.90;57.40;;;;;;4460916;32;19974;-76
2022/12/27 12:12:26;;;;;;;;;;;18.80;57.30;;;;;;4461140;32;20024;-76
2022/12/27 12:14:52;;;;;;;;;;;18.80;57.40;;;;;;4446819;32;19970;-77
2022/12/27 12:17:28;;;;;;;;;;;18.80;57.40;;;;;;4461071;32;20064;-76
2022/12/27 12:20:14;;;;;;;;;;;18.80;57.50;;;;;;4460786;32;20022;-77
2022/12/27 12:23:02;;;;;;;;;;;18.80;57.60;;;;;;4460946;32;19993;-77
2022/12/27 12:25:34;;;;;;;;;;;18.80;57.50;;;;;;4460992;32;20025;-77
2022/12/27 12:28:18;;;;;;;;;;;18.80;57.60;;;;;;4460866;32;20008;-77
2022/12/27 12:31:03;;;;;;;;;;;18.80;57.70;;;;;;4460658;32;20025;-76
2022/12/27 12:33:50;;;;;;;;;;;18.80;57.70;;;;;;4460906;32;20008;-76
2022/12/27 12:36:31;;;;;;;;;;;18.80;57.80;;;;;;4450863;32;20088;-76
2022/12/27 12:39:05;;;;;;;;;;;18.70;57.60;;;;;;4460698;32;19983;-76
2022/12/27 12:41:46;;;;;;;;;;;18.80;57.80;;;;;;4460746;32;19984;-77
2022/12/27 12:44:29;;;;;;;;;;;18.70;57.70;;;;;;4460115;32;20112;-76
2022/12/27 12:47:11;;;;;;;;;;;18.70;57.60;;;;;;4460722;32;20364;-76
2022/12/27 12:49:55;;;;;;;;;;;18.70;57.70;;;;;;4460473;32;20055;-76
2022/12/27 12:52:24;;;;;;;;;;;18.70;58.70;;;;;;4460886;32;20033;-78
2022/12/27 12:54:58;;;;;;;;;;;18.80;57.70;;;;;;4450158;32;20005;-75
2022/12/27 12:57:38;;;;;;;;;;;18.80;57.60;;;;;;4458554;32;20076;-73
2022/12/27 13:00:07;;;;;;;;;;;18.80;57.50;;;;;;4456997;32;20026;-73
2022/12/27 13:02:52;;;;;;;;;;;18.90;57.60;;;;;;4455979;32;20096;-73
2022/12/27 13:05:21;;;;;;;;;;;19.00;57.50;;;;;;4458023;32;19992;-71
2022/12/27 13:07:49;;;;;;;;;;;19.00;57.40;;;;;;4444944;32;19990;-73
2022/12/27 13:10:24;;;;;;;;;;;19.10;57.50;;;;;;4458513;32;19988;-73
2022/12/27 13:12:53;;;;;;;;;;;19.20;57.40;;;;;;4459907;32;19986;-73
2022/12/27 13:15:42;;;;;;;;;;;19.30;57.30;;;;;;4459270;32;19986;-73
2022/12/27 13:18:20;;;;;;;;;;;19.40;57.20;;;;;;4450592;32;20120;-73
2022/12/27 13:20:59;;;;;;;;;;;19.50;57.00;;;;;;4460965;32;20458;-72
2022/12/27 13:23:36;;;;;;;;;;;19.70;57.70;;;;;;4460085;32;20041;-73
2022/12/27 13:26:05;;;;;;;;;;;19.80;56.50;;;;;;4460142;32;20360;-73
2022/12/27 13:28:31;;;;;;;;;;;19.90;56.30;;;;;;4460169;32;19986;-73
2022/12/27 13:31:17;;;;;;;;;;;20.00;56.20;;;;;;4461369;32;20080;-74
2022/12/27 13:34:01;;;;;;;;;;;20.00;56.00;;;;;;4461641;32;20056;-73
2022/12/27 13:36:26;;;;;;;;;;;20.10;56.00;;;;;;4460225;32;20399;-72
2022/12/27 13:39:05;;;;;;;;;;;20.10;56.00;;;;;;4460020;32;19982;-73
2022/12/27 13:41:41;;;;;;;;;;;20.10;56.00;;;;;;4459567;32;20117;-73
2022/12/27 13:44:12;;;;;;;;;;;20.20;56.00;;;;;;4459665;32;20049;-74
2022/12/27 13:46:38;;;;;;;;;;;20.20;56.10;;;;;;4461182;32;20031;-73
2022/12/27 13:49:19;;;;;;;;;;;20.20;56.10;;;;;;4460820;32;20022;-74
2022/12/27 13:51:47;;;;;;;;;;;20.20;56.10;;;;;;4461630;32;20041;-72
2022/12/27 13:54:31;;;;;;;;;;;20.20;56.10;;;;;;4461071;32;20037;-73
2022/12/27 13:56:57;;;;;;;;;;;20.20;56.10;;;;;;4461418;32;20041;-73
2022/12/27 13:59:41;;;;;;;;;;;20.20;56.10;;;;;;4460480;32;20080;-73
2022/12/27 14:02:26;;;;;;;;;;;20.20;56.10;;;;;;4459352;32;20108;-73
2022/12/27 14:05:08;;;;;;;;;;;20.20;56.00;;;;;;4461132;32;19994;-73
2022/12/27 14:07:37;;;;;;;;;;;20.20;56.00;;;;;;4460994;32;19986;-73
2022/12/27 14:10:05;;;;;;;;;;;20.20;56.10;;;;;;4460645;32;19986;-73
2022/12/27 14:12:31;;;;;;;;;;;20.20;56.10;;;;;;4461010;32;19981;-74
2022/12/27 14:14:59;;;;;;;;;;;20.30;56.20;;;;;;4459625;32;20487;-73
2022/12/27 14:17:27;;;;;;;;;;;20.30;56.20;;;;;;4459582;32;20029;-73
2022/12/27 14:19:53;;;;;;;;;;;20.30;56.20;;;;;;4460809;32;20323;-73
2022/12/27 14:22:19;;;;;;;;;;;20.30;56.20;;;;;;4460143;32;19978;-73
2022/12/27 14:24:54;;;;;;;;;;;20.30;56.20;;;;;;4458611;32;20439;-73
2022/12/27 14:27:38;;;;;;;;;;;20.30;56.10;;;;;;4459758;32;19982;-73
2022/12/27 14:30:23;;;;;;;;;;;20.30;56.10;;;;;;4461493;32;20064;-73
2022/12/27 14:33:07;;;;;;;;;;;20.30;56.10;;;;;;4458370;32;20136;-72
2022/12/27 14:35:33;;;;;;;;;;;20.30;56.00;;;;;;4458576;32;20052;-73
2022/12/27 14:38:05;;;;;;;;;;;20.40;56.10;;;;;;4459819;32;19958;-72
2022/12/27 14:40:45;;;;;;;;;;;20.40;56.10;;;;;;4460031;32;19974;-72
2022/12/27 14:43:37;;;;;;;;;;;20.40;56.10;;;;;;4459862;32;20411;-72
2022/12/27 14:46:15;;;;;;;;;;;20.40;56.10;;;;;;4454514;32;20006;-73
2022/12/27 14:48:53;;;;;;;;;;;20.40;56.00;;;;;;4455276;32;19985;-74
2022/12/27 14:51:28;;;;;;;;;;;20.40;56.00;;;;;;4451760;32;19971;-74
2022/12/27 14:53:57;;;;;;;;;;;20.40;56.00;;;;;;4454534;32;20056;-73
2022/12/27 14:56:28;;;;;;;;;;;20.40;56.00;;;;;;4451154;32;19978;-73
2022/12/27 14:59:05;;;;;;;;;;;20.40;55.90;;;;;;4453884;32;20178;-73
2022/12/27 15:01:50;;;;;;;;;;;20.40;56.00;;;;;;4451253;32;20352;-74
2022/12/27 15:04:16;;;;;;;;;;;20.40;56.00;;;;;;4446365;32;20344;-73
2022/12/27 15:06:54;;;;;;;;;;;20.40;55.90;;;;;;4450583;32;19986;-73
2022/12/27 15:09:29;;;;;;;;;;;20.50;56.00;;;;;;4455311;32;20055;-73
2022/12/27 15:11:55;;;;;;;;;;;20.50;56.00;;;;;;4455994;32;20025;-73
2022/12/27 15:14:30;;;;;;;;;;;20.50;56.00;;;;;;4454840;32;19986;-73
2022/12/27 15:17:05;;;;;;;;;;;20.50;56.00;;;;;;4456697;32;19993;-73
2022/12/27 15:19:30;;;;;;;;;;;20.50;56.00;;;;;;4454801;32;19977;-74
2022/12/27 15:22:04;;;;;;;;;;;20.50;56.00;;;;;;4450913;32;19962;-74
2022/12/27 15:24:36;;;;;;;;;;;20.50;56.00;;;;;;4454189;32;20001;-74
2022/12/27 15:27:20;;;;;;;;;;;20.50;56.00;;;;;;4451874;32;20092;-73
2022/12/27 15:30:06;;;;;;;;;;;20.50;56.00;;;;;;4461334;32;20002;-72
2022/12/27 15:32:43;;;;;;;;;;;20.50;56.00;;;;;;4459955;32;19990;-72
2022/12/27 15:35:30;;;;;;;;;;;20.50;56.00;;;;;;4444939;32;19984;-72
2022/12/27 15:38:08;;;;;;;;;;;20.50;56.00;;;;;;4459117;32;19970;-73
2022/12/27 15:40:34;;;;;;;;;;;20.50;56.10;;;;;;4459239;32;20031;-72
2022/12/27 15:42:59;;;;;;;;;;;20.50;56.10;;;;;;4460209;32;19974;-73
2022/12/27 15:45:32;;;;;;;;;;;20.50;56.10;;;;;;4460528;32;19974;-73
2022/12/27 15:47:57;;;;;;;;;;;20.50;56.00;;;;;;4449736;32;19988;-71
2022/12/27 15:50:42;;;;;;;;;;;20.50;56.10;;;;;;4452061;32;20308;-71
2022/12/27 15:53:11;;;;;;;;;;;20.50;56.20;;;;;;4445657;32;20377;-71
2022/12/27 15:55:58;;;;;;;;;;;20.50;56.30;;;;;;4445751;32;19991;-72
2022/12/27 15:58:24;;;;;;;;;;;20.50;56.30;;;;;;4457278;32;19990;-72
2022/12/27 16:01:09;;;;;;;;;;;20.50;56.30;;;;;;4458998;32;20411;-72
2022/12/27 16:03:36;;;;;;;;;;;20.50;56.30;;;;;;4458401;32;20010;-74
2022/12/27 16:06:03;;;;;;;;;;;20.50;56.30;;;;;;4459699;32;20308;-71
2022/12/27 16:08:32;;;;;;;;;;;20.50;56.30;;;;;;4458193;32;20339;-72
2022/12/27 16:10:58;;;;;;;;;;;20.50;56.30;;;;;;4458708;32;19985;-70
2022/12/27 16:13:30;;;;;;;;;;;20.50;56.30;;;;;;4457637;32;19978;-71
2022/12/27 16:15:56;;;;;;;;;;;20.50;56.30;;;;;;4459361;32;19982;-71
2022/12/27 16:18:21;;;;;;;;;;;20.50;56.30;;;;;;4458489;32;20045;-71